Time;durP1;ratioP1;P1;durP2;ratioP2;P2;SDS_P1;SDS_P2;PMS_P1;PMS_P2;Temp;Humidity;BMP_temperature;BMP_pressure;BME280_temperature;BME280_humidity;BME280_pressure;Samples;Min_cycle;Max_cycle;Signal;HPM_P1;HPM_P2
2023/07/30 00:02:08;;;;;;;4.30;1.90;;;;;;;19.76;85.70;99290.52;131048;1251;107404;-78
2023/07/30 00:05:13;;;;;;;2.20;1.70;;;;;;;19.75;85.70;99282.27;131044;1257;107519;-78
2023/07/30 00:08:19;;;;;;;1.80;1.30;;;;;;;19.71;85.80;99285.36;130995;1257;107568;-78
2023/07/30 00:11:24;;;;;;;3.50;2.00;;;;;;;19.70;85.72;99287.90;131022;1251;107488;-78
2023/07/30 00:14:30;;;;;;;2.60;1.80;;;;;;;19.71;85.99;99284.86;131004;1251;107557;-78
2023/07/30 00:17:35;;;;;;;2.70;2.10;;;;;;;19.71;85.94;99287.98;131020;1256;107221;-78
2023/07/30 00:20:42;;;;;;;3.50;2.00;;;;;;;19.69;85.99;99287.79;130925;1255;107448;-78
2023/07/30 00:23:47;;;;;;;2.90;2.10;;;;;;;19.67;85.97;99291.95;130993;1257;107508;-78
2023/07/30 00:26:53;;;;;;;4.00;2.00;;;;;;;19.64;86.01;99294.17;131108;1256;107406;-78
2023/07/30 00:29:58;;;;;;;2.70;2.00;;;;;;;19.62;86.16;99299.49;131063;1255;107331;-78
2023/07/30 00:33:04;;;;;;;3.00;1.90;;;;;;;19.61;86.18;99300.30;130985;1252;107516;-78
2023/07/30 00:36:09;;;;;;;2.70;2.20;;;;;;;19.59;86.14;99303.16;130976;1265;107489;-78
2023/07/30 00:39:15;;;;;;;4.40;2.30;;;;;;;19.54;86.23;99304.88;130984;1256;107516;-78
2023/07/30 00:42:20;;;;;;;3.50;2.30;;;;;;;19.50;86.36;99309.54;131080;1258;107697;-78
2023/07/30 00:45:26;;;;;;;3.20;2.60;;;;;;;19.48;86.37;99309.94;130983;1257;105693;-79
2023/07/30 00:48:34;;;;;;;3.80;2.20;;;;;;;19.47;86.36;99317.90;130993;1251;107494;-78
2023/07/30 00:51:41;;;;;;;5.20;2.40;;;;;;;19.44;86.32;99318.34;130935;1257;107548;-79
2023/07/30 00:54:47;;;;;;;3.00;2.00;;;;;;;19.40;86.33;99317.28;130976;1251;108115;-79
2023/07/30 00:57:53;;;;;;;4.80;2.40;;;;;;;19.38;86.45;99317.81;131010;1257;108124;-79
2023/07/30 01:00:59;;;;;;;3.60;2.60;;;;;;;19.37;86.56;99318.16;131050;1251;107341;-78
2023/07/30 01:04:05;;;;;;;3.50;2.50;;;;;;;19.36;86.63;99313.56;131084;1251;106676;-79
2023/07/30 01:07:11;;;;;;;3.40;2.00;;;;;;;19.34;86.53;99310.30;130968;1257;107594;-79
2023/07/30 01:10:17;;;;;;;3.70;2.20;;;;;;;19.32;86.67;99314.09;130927;1251;107496;-79
2023/07/30 01:13:23;;;;;;;3.40;2.00;;;;;;;19.29;86.65;99314.34;131007;1258;107540;-78
2023/07/30 01:16:29;;;;;;;2.80;2.20;;;;;;;19.25;86.79;99318.36;130986;1257;108096;-79
2023/07/30 01:19:35;;;;;;;2.60;2.10;;;;;;;19.21;86.89;99322.66;131027;1257;107561;-79
2023/07/30 01:22:40;;;;;;;2.80;2.30;;;;;;;19.18;87.04;99333.27;130955;1255;107594;-79
2023/07/30 01:25:47;;;;;;;4.20;2.10;;;;;;;19.13;87.13;99337.92;131002;1251;108343;-79
2023/07/30 01:28:57;;;;;;;5.20;2.40;;;;;;;19.12;87.21;99336.44;131060;1257;108463;-79
2023/07/30 01:32:07;;;;;;;3.80;2.70;;;;;;;19.11;87.36;99336.63;130958;1256;107147;-78
2023/07/30 01:35:14;;;;;;;2.80;2.50;;;;;;;19.12;87.41;99341.07;130968;1256;107504;-79
2023/07/30 01:38:21;;;;;;;5.20;2.50;;;;;;;19.12;87.46;99342.48;130974;1256;107491;-79
2023/07/30 01:41:26;;;;;;;3.20;2.30;;;;;;;19.09;87.61;99344.48;130989;1257;107469;-79
2023/07/30 01:44:32;;;;;;;2.80;2.50;;;;;;;19.07;87.62;99342.46;130998;1257;107468;-79
2023/07/30 01:47:38;;;;;;;5.60;2.60;;;;;;;19.06;87.79;99352.39;130987;1252;107321;-78
2023/07/30 01:50:46;;;;;;;3.20;2.70;;;;;;;19.06;87.92;99351.90;130967;1256;105902;-78
2023/07/30 01:53:52;;;;;;;5.30;2.60;;;;;;;19.02;87.79;99353.52;130947;1255;107420;-78
2023/07/30 01:56:58;;;;;;;3.40;2.20;;;;;;;18.97;88.10;99361.80;131032;1251;105709;-78
2023/07/30 02:00:04;;;;;;;3.30;2.60;;;;;;;18.96;88.25;99362.30;130941;1251;105944;-78
2023/07/30 02:03:09;;;;;;;3.90;2.80;;;;;;;18.98;88.34;99360.77;130945;1254;107523;-78
2023/07/30 02:06:15;;;;;;;3.90;2.50;;;;;;;19.00;88.43;99355.92;131030;1256;107414;-78
2023/07/30 02:09:21;;;;;;;3.60;2.60;;;;;;;19.02;88.24;99361.27;131022;1251;107502;-78
2023/07/30 02:12:27;;;;;;;4.80;2.60;;;;;;;19.02;88.41;99353.73;131001;1255;106697;-78
2023/07/30 02:15:32;;;;;;;3.10;2.80;;;;;;;19.02;88.58;99357.64;130979;1257;107492;-78
2023/07/30 02:18:38;;;;;;;4.20;3.00;;;;;;;19.01;88.58;99357.02;130932;1256;107592;-78
2023/07/30 02:21:43;;;;;;;3.20;2.90;;;;;;;19.00;88.80;99362.61;131001;1265;107216;-79
2023/07/30 02:24:49;;;;;;;3.40;2.80;;;;;;;19.00;89.04;99361.20;130941;1251;107529;-79
2023/07/30 02:27:54;;;;;;;3.60;2.60;;;;;;;18.96;89.16;99358.89;130948;1264;107616;-79
2023/07/30 02:31:00;;;;;;;3.00;2.70;;;;;;;18.94;89.17;99365.26;130969;1251;107513;-79
2023/07/30 02:34:06;;;;;;;3.00;2.70;;;;;;;18.97;89.30;99365.30;130992;1257;107580;-79
2023/07/30 02:37:12;;;;;;;4.20;2.80;;;;;;;19.00;89.41;99374.35;130947;1256;107446;-79
2023/07/30 02:40:18;;;;;;;4.10;2.80;;;;;;;19.04;89.38;99375.25;130896;1267;107223;-79
2023/07/30 02:43:24;;;;;;;3.40;3.00;;;;;;;19.03;89.64;99376.31;130959;1251;107632;-78
2023/07/30 02:46:30;;;;;;;3.40;2.80;;;;;;;18.98;89.64;99386.14;130959;1255;107567;-78
2023/07/30 02:49:35;;;;;;;3.80;3.00;;;;;;;19.00;89.83;99387.38;130994;1265;107567;-79
2023/07/30 02:52:40;;;;;;;3.70;2.70;;;;;;;19.02;89.94;99383.80;130841;1256;107529;-78
2023/07/30 02:55:46;;;;;;;4.60;3.40;;;;;;;19.03;90.04;99388.86;130981;1251;107611;-79
2023/07/30 02:58:51;;;;;;;4.10;3.10;;;;;;;19.00;90.21;99393.98;130939;1255;107517;-79
2023/07/30 03:01:57;;;;;;;6.00;3.30;;;;;;;18.99;90.13;99395.20;130999;1257;107556;-78
2023/07/30 03:05:03;;;;;;;6.20;3.70;;;;;;;19.03;90.32;99400.64;130908;1257;106750;-79
2023/07/30 03:08:08;;;;;;;6.00;3.70;;;;;;;19.01;90.54;99397.58;130964;1263;107483;-79
2023/07/30 03:11:14;;;;;;;3.90;3.20;;;;;;;18.95;90.78;99391.89;130945;1256;107297;-79
2023/07/30 03:14:21;;;;;;;4.10;3.70;;;;;;;18.93;90.81;99392.88;130991;1257;107501;-78
2023/07/30 03:17:27;;;;;;;4.50;3.90;;;;;;;18.89;90.78;99391.14;130912;1257;107546;-78
2023/07/30 03:20:33;;;;;;;5.00;3.90;;;;;;;18.88;90.71;99397.48;131031;1251;108646;-79
2023/07/30 03:23:38;;;;;;;3.90;3.50;;;;;;;18.82;90.83;99395.77;130917;1264;107476;-79
2023/07/30 03:26:44;;;;;;;5.10;3.00;;;;;;;18.80;90.89;99401.03;131003;1262;107580;-78
2023/07/30 03:29:49;;;;;;;5.00;3.50;;;;;;;18.87;90.77;99404.60;130932;1251;105918;-79
2023/07/30 03:32:55;;;;;;;4.80;3.50;;;;;;;18.92;91.45;99399.59;130965;1256;107511;-78
2023/07/30 03:36:00;;;;;;;4.90;3.80;;;;;;;18.90;91.31;99407.96;131065;1251;107626;-79
2023/07/30 03:39:06;;;;;;;4.30;3.90;;;;;;;18.88;91.99;99408.95;130955;1251;107189;-79
2023/07/30 03:42:11;;;;;;;4.30;3.80;;;;;;;18.81;91.40;99412.04;131018;1255;107418;-79
2023/07/30 03:45:17;;;;;;;4.20;3.70;;;;;;;18.80;92.02;99414.44;130987;1257;107524;-78
2023/07/30 03:48:22;;;;;;;4.30;3.90;;;;;;;18.71;91.96;99417.85;130954;1251;107602;-78
2023/07/30 03:51:29;;;;;;;5.20;3.70;;;;;;;18.66;91.73;99418.04;130992;1251;107547;-79
2023/07/30 03:54:35;;;;;;;5.60;3.60;;;;;;;18.67;91.89;99428.55;130924;1256;107538;-79
2023/07/30 03:57:40;;;;;;;6.50;4.10;;;;;;;18.67;91.84;99429.64;130986;1257;107445;-79
2023/07/30 04:00:46;;;;;;;5.60;4.10;;;;;;;18.68;92.33;99431.76;130989;1251;107520;-79
2023/07/30 04:03:51;;;;;;;6.30;4.70;;;;;;;18.64;91.98;99431.02;130971;1251;107427;-78
2023/07/30 04:06:57;;;;;;;5.70;4.00;;;;;;;18.70;91.84;99440.63;131058;1257;108098;-79
2023/07/30 04:10:02;;;;;;;4.20;3.70;;;;;;;18.73;91.97;99436.84;130924;1256;107347;-79
2023/07/30 04:13:08;;;;;;;4.50;3.90;;;;;;;18.76;91.93;99444.24;131118;1256;107421;-78
2023/07/30 04:16:14;;;;;;;5.20;3.50;;;;;;;18.84;91.76;99444.10;130938;1257;107485;-79
2023/07/30 04:19:19;;;;;;;4.50;4.10;;;;;;;18.96;91.75;99452.36;130969;1257;107514;-79
2023/07/30 04:22:25;;;;;;;4.90;4.40;;;;;;;19.05;91.37;99448.50;131011;1257;107499;-78
2023/07/30 04:25:31;;;;;;;5.00;4.50;;;;;;;19.13;91.12;99456.36;131057;1256;108674;-78
2023/07/30 04:28:36;;;;;;;5.30;4.30;;;;;;;19.16;91.10;99459.23;131031;1255;107521;-79
2023/07/30 04:31:42;;;;;;;4.90;4.30;;;;;;;19.15;91.32;99467.29;131009;1257;107249;-78
2023/07/30 04:34:47;;;;;;;5.40;3.80;;;;;;;19.31;91.40;99472.20;130979;1251;107519;-79
2023/07/30 04:37:53;;;;;;;4.30;3.90;;;;;;;19.50;90.55;99474.52;131236;1266;106683;-79
2023/07/30 04:41:01;;;;;;;3.80;3.50;;;;;;;19.45;89.86;99480.52;131188;1251;107531;-78
2023/07/30 04:44:08;;;;;;;4.10;3.70;;;;;;;19.39;89.99;99485.17;130972;1257;108544;-78
2023/07/30 04:47:13;;;;;;;6.80;4.10;;;;;;;19.31;89.77;99488.33;131048;1257;107526;-79
2023/07/30 04:50:19;;;;;;;5.00;3.90;;;;;;;19.22;90.19;99484.63;131028;1257;107527;-79
2023/07/30 04:53:25;;;;;;;3.90;3.60;;;;;;;19.31;90.43;99490.95;131008;1256;107528;-79
2023/07/30 04:56:31;;;;;;;5.00;4.50;;;;;;;19.44;90.23;99495.42;131158;1256;107595;-79
2023/07/30 04:59:36;;;;;;;5.00;4.10;;;;;;;19.52;90.37;99501.44;131184;1266;107313;-79
2023/07/30 05:02:42;;;;;;;5.70;4.20;;;;;;;19.67;90.49;99511.94;131104;1256;107437;-78
2023/07/30 05:05:47;;;;;;;4.20;3.60;;;;;;;19.81;90.18;99516.23;131116;1256;107530;-77
2023/07/30 05:08:54;;;;;;;4.60;4.20;;;;;;;19.96;90.21;99518.39;131426;1254;107199;-79
2023/07/30 05:11:59;;;;;;;5.40;4.40;;;;;;;20.16;90.31;99520.94;131232;1256;108120;-79
2023/07/30 05:15:06;;;;;;;7.10;3.90;;;;;;;20.31;89.78;99525.96;131190;1256;107519;-79
2023/07/30 05:18:13;;;;;;;4.60;4.10;;;;;;;20.42;89.70;99523.11;131340;1257;107034;-79
2023/07/30 05:21:21;;;;;;;6.90;4.00;;;;;;;20.48;89.20;99525.27;131024;1255;107477;-79
2023/07/30 05:24:26;;;;;;;5.00;4.50;;;;;;;20.61;89.78;99519.99;131132;1252;107212;-79
2023/07/30 05:27:35;;;;;;;4.60;4.20;;;;;;;20.77;89.26;99522.26;131227;1254;107460;-80
2023/07/30 05:30:42;;;;;;;5.10;4.50;;;;;;;20.85;88.93;99524.74;130931;1257;106423;-76
2023/07/30 05:33:47;;;;;;;6.30;4.50;;;;;;;20.92;88.82;99523.67;130998;1254;107339;-76
2023/07/30 05:36:53;;;;;;;5.00;4.50;;;;;;;21.08;88.68;99525.30;131219;1255;106680;-76
2023/07/30 05:40:01;;;;;;;5.50;4.60;;;;;;;21.28;88.51;99522.44;131079;1257;109270;-76
2023/07/30 05:43:06;;;;;;;5.30;4.60;;;;;;;21.44;88.16;99518.48;130992;1257;107229;-75
2023/07/30 05:46:12;;;;;;;5.40;4.90;;;;;;;21.45;87.36;99522.22;131047;1256;107632;-76
2023/07/30 05:49:17;;;;;;;6.60;5.30;;;;;;;21.30;86.44;99520.84;131079;1257;107525;-76
2023/07/30 05:52:23;;;;;;;5.30;4.20;;;;;;;21.10;87.16;99525.64;130962;1265;107509;-75
2023/07/30 05:55:28;;;;;;;4.80;3.90;;;;;;;21.07;87.55;99526.73;130953;1257;107428;-75
2023/07/30 05:58:34;;;;;;;5.50;4.10;;;;;;;21.05;86.90;99524.91;130936;1257;107512;-75
2023/07/30 06:01:39;;;;;;;5.20;3.90;;;;;;;21.13;87.24;99525.49;130954;1264;107644;-75
2023/07/30 06:04:45;;;;;;;4.20;3.80;;;;;;;21.31;87.21;99526.07;130963;1255;107531;-75
2023/07/30 06:07:50;;;;;;;4.60;4.10;;;;;;;21.50;86.75;99525.54;130999;1256;107739;-75
2023/07/30 06:10:56;;;;;;;13.50;4.60;;;;;;;21.56;86.05;99526.52;130931;1257;107551;-75
2023/07/30 06:14:01;;;;;;;4.00;3.50;;;;;;;21.49;86.41;99522.90;131001;1265;107333;-74
2023/07/30 06:17:07;;;;;;;4.50;3.60;;;;;;;21.58;86.60;99523.52;130940;1257;108703;-75
2023/07/30 06:20:14;;;;;;;4.20;3.70;;;;;;;21.70;86.18;99526.73;130971;1256;107502;-75
2023/07/30 06:23:19;;;;;;;4.20;3.80;;;;;;;21.74;84.23;99528.84;130978;1258;107468;-75
2023/07/30 06:26:25;;;;;;;4.10;3.70;;;;;;;21.57;83.81;99525.63;130971;1251;107346;-76
2023/07/30 06:29:30;;;;;;;4.30;3.60;;;;;;;21.67;85.42;99520.90;130959;1256;107555;-76
2023/07/30 06:32:36;;;;;;;4.40;3.50;;;;;;;21.79;84.75;99525.73;130920;1256;107275;-76
2023/07/30 06:35:41;;;;;;;3.90;3.50;;;;;;;21.98;85.00;99530.07;130968;1257;107629;-75
2023/07/30 06:38:47;;;;;;;4.30;3.90;;;;;;;22.19;83.73;99524.83;131057;1252;107363;-76
2023/07/30 06:41:52;;;;;;;4.20;3.80;;;;;;;22.15;82.00;99526.29;131007;1257;107505;-74
2023/07/30 06:44:59;;;;;;;4.20;3.50;;;;;;;22.08;83.40;99523.73;131101;1257;107449;-74
2023/07/30 06:48:05;;;;;;;6.00;3.70;;;;;;;22.19;83.97;99527.95;131014;1257;107604;-74
2023/07/30 06:51:13;;;;;;;3.90;3.60;;;;;;;22.28;82.12;99532.45;131071;1264;105946;-76
2023/07/30 06:54:19;;;;;;;3.80;3.40;;;;;;;22.34;82.37;99529.88;131054;1257;107427;-76
2023/07/30 06:57:24;;;;;;;3.70;3.30;;;;;;;22.55;81.71;99535.83;130972;1264;106120;-76
2023/07/30 07:00:30;;;;;;;3.60;3.30;;;;;;;22.73;82.98;99531.91;130941;1257;107469;-77
2023/07/30 07:03:35;;;;;;;3.90;3.50;;;;;;;22.92;81.55;99531.95;130975;1257;107003;-76
2023/07/30 07:06:41;;;;;;;3.90;3.50;;;;;;;22.93;81.08;99532.27;130966;1257;105852;-76
2023/07/30 07:09:46;;;;;;;3.90;3.40;;;;;;;22.78;79.09;99531.61;131003;1258;106547;-77
2023/07/30 07:12:53;;;;;;;3.70;3.10;;;;;;;22.47;78.66;99535.08;131011;1258;108686;-76
2023/07/30 07:15:59;;;;;;;3.30;3.00;;;;;;;22.32;80.90;99531.73;131051;1257;107498;-76
2023/07/30 07:19:05;;;;;;;4.70;3.70;;;;;;;22.42;81.22;99534.83;131031;1257;107511;-76
2023/07/30 07:22:10;;;;;;;4.60;3.10;;;;;;;22.43;80.10;99533.11;130983;1256;106275;-76
2023/07/30 07:25:18;;;;;;;5.50;3.30;;;;;;;22.36;80.42;99529.25;131082;1265;107509;-75
2023/07/30 07:28:24;;;;;;;3.80;3.10;;;;;;;22.32;80.31;99533.31;131065;1257;106769;-76
2023/07/30 07:31:30;;;;;;;3.30;3.00;;;;;;;22.48;80.67;99534.27;131102;1266;107539;-76
2023/07/30 07:34:35;;;;;;;3.70;3.30;;;;;;;22.70;80.65;99537.19;131089;1257;107532;-77
2023/07/30 07:37:43;;;;;;;4.20;3.80;;;;;;;22.91;79.88;99541.19;131101;1258;107586;-76
2023/07/30 07:40:49;;;;;;;4.40;3.20;;;;;;;23.13;79.43;99539.53;130972;1257;107490;-76
2023/07/30 07:43:54;;;;;;;4.10;3.40;;;;;;;23.27;78.63;99538.23;131003;1256;107518;-76
2023/07/30 07:47:00;;;;;;;4.50;3.30;;;;;;;23.09;76.20;99540.46;131020;1256;107205;-75
2023/07/30 07:50:06;;;;;;;4.20;3.40;;;;;;;22.82;77.52;99537.08;131076;1251;107007;-76
2023/07/30 07:53:12;;;;;;;3.60;3.10;;;;;;;22.91;78.83;99532.09;130997;1257;107492;-75
2023/07/30 07:56:17;;;;;;;4.00;3.10;;;;;;;23.05;77.14;99531.38;130913;1252;105849;-75
2023/07/30 07:59:23;;;;;;;5.70;2.90;;;;;;;23.07;76.75;99536.09;130992;1265;107530;-75
2023/07/30 08:02:29;;;;;;;3.80;3.40;;;;;;;23.08;75.20;99534.23;131035;1257;107492;-76
2023/07/30 08:05:35;;;;;;;4.90;3.40;;;;;;;23.05;74.50;99537.53;130992;1259;108867;-76
2023/07/30 08:08:41;;;;;;;4.10;3.70;;;;;;;23.03;72.27;99528.83;130933;1264;107673;-77
2023/07/30 08:11:46;;;;;;;5.10;3.40;;;;;;;23.00;74.17;99529.32;131036;1256;107545;-78
2023/07/30 08:14:52;;;;;;;3.30;3.00;;;;;;;23.15;75.54;99533.23;130937;1251;107482;-76
2023/07/30 08:17:57;;;;;;;3.40;3.00;;;;;;;23.45;74.43;99534.18;131202;1254;107537;-76
2023/07/30 08:21:03;;;;;;;3.80;3.20;;;;;;;23.50;72.56;99535.33;130990;1257;107494;-76
2023/07/30 08:24:09;;;;;;;3.30;3.10;;;;;;;23.52;74.29;99536.39;131089;1257;108442;-76
2023/07/30 08:27:14;;;;;;;3.30;3.00;;;;;;;23.57;73.86;99535.95;130968;1251;107618;-76
2023/07/30 08:30:21;;;;;;;3.40;3.10;;;;;;;23.70;73.69;99544.52;130849;1257;203786;-80
2023/07/30 08:33:26;;;;;;;3.70;3.40;;;;;;;23.77;71.95;99544.60;131167;1256;107495;-79
2023/07/30 08:36:32;;;;;;;3.60;3.30;;;;;;;23.81;72.15;99544.77;131113;1257;107446;-78
2023/07/30 08:39:37;;;;;;;3.40;3.10;;;;;;;23.98;73.01;99545.84;131114;1255;107522;-79
2023/07/30 08:42:43;;;;;;;3.70;3.10;;;;;;;24.00;72.84;99554.70;131194;1258;107495;-78
2023/07/30 08:45:56;;;;;;;3.20;2.90;;;;;;;23.92;72.12;99557.73;131032;1257;106548;-77
2023/07/30 08:49:08;;;;;;;3.60;3.30;;;;;;;23.96;71.63;99554.48;130889;1254;108716;-80
2023/07/30 08:52:17;;;;;;;3.30;3.00;;;;;;;23.92;70.48;99557.79;131133;1255;107756;-76
2023/07/30 08:55:23;;;;;;;4.10;3.80;;;;;;;23.88;69.09;99562.70;131066;1256;107353;-77
2023/07/30 08:58:30;;;;;;;4.30;3.90;;;;;;;23.72;70.76;99562.41;131145;1257;107413;-77
2023/07/30 09:01:40;;;;;;;4.90;4.30;;;;;;;23.64;70.25;99567.83;131014;1257;107608;-77
2023/07/30 09:04:49;;;;;;;4.00;3.70;;;;;;;23.67;69.73;99565.56;130994;1255;107676;-77
2023/07/30 09:07:54;;;;;;;3.80;3.50;;;;;;;23.60;70.04;99576.28;131021;1257;107577;-77
2023/07/30 09:11:06;;;;;;;3.40;3.10;;;;;;;23.54;69.73;99582.26;131019;1257;107630;-77
2023/07/30 09:14:12;;;;;;;3.70;3.40;;;;;;;23.70;70.94;99576.83;130966;1257;107419;-77
2023/07/30 09:17:20;;;;;;;4.70;3.20;;;;;;;24.10;70.65;99574.29;130874;1257;107481;-78
2023/07/30 09:20:26;;;;;;;3.20;2.80;;;;;;;24.26;69.52;99582.45;131031;1257;107503;-78
2023/07/30 09:23:32;;;;;;;3.30;3.00;;;;;;;24.21;69.91;99580.17;130970;1251;107513;-77
2023/07/30 09:26:46;;;;;;;3.20;2.90;;;;;;;24.33;69.24;99574.77;130988;1258;107536;-78
2023/07/30 09:29:54;;;;;;;2.90;2.70;;;;;;;24.46;69.26;99573.01;131065;1254;107410;-79
2023/07/30 09:33:00;;;;;;;3.50;3.20;;;;;;;24.47;69.36;99578.58;131043;1255;107591;-77
2023/07/30 09:36:07;;;;;;;3.40;3.10;;;;;;;24.40;68.18;99578.75;130986;1257;107515;-79
2023/07/30 09:39:20;;;;;;;3.70;3.20;;;;;;;24.34;65.55;99583.12;131199;1254;108136;-78
2023/07/30 09:42:29;;;;;;;2.80;2.60;;;;;;;24.29;67.74;99589.23;131342;1254;107378;-82
2023/07/30 09:45:36;;;;;;;3.10;2.80;;;;;;;24.39;68.31;99582.38;131020;1251;107982;-79
2023/07/30 09:48:42;;;;;;;3.80;3.00;;;;;;;24.49;65.66;99578.65;131103;1257;107764;-78
2023/07/30 09:51:48;;;;;;;4.00;3.10;;;;;;;24.50;65.19;99573.71;131092;1251;107510;-79
2023/07/30 09:54:54;;;;;;;3.20;2.90;;;;;;;24.63;66.19;99570.70;131058;1264;107500;-78
2023/07/30 09:58:00;;;;;;;3.80;3.10;;;;;;;24.87;66.21;99568.77;131074;1257;107371;-78
2023/07/30 10:01:06;;;;;;;3.10;2.90;;;;;;;24.97;65.85;99560.59;131002;1255;108785;-78
2023/07/30 10:04:12;;;;;;;3.50;3.20;;;;;;;24.98;64.36;99566.23;130964;1258;107440;-78
2023/07/30 10:07:23;;;;;;;3.70;2.90;;;;;;;25.12;65.54;99561.09;131046;1257;107569;-78
2023/07/30 10:10:31;;;;;;;3.00;2.70;;;;;;;25.28;62.87;99561.19;131027;1260;107475;-78
2023/07/30 10:13:38;;;;;;;3.50;2.60;;;;;;;25.17;63.84;99562.97;131051;1257;108647;-78
2023/07/30 10:16:53;;;;;;;3.90;2.50;;;;;;;25.11;64.42;99561.36;130992;1257;106723;-79
2023/07/30 10:20:18;;;;;;;2.80;2.60;;;;;;;25.14;64.66;99558.75;130995;1254;107515;-78
2023/07/30 10:23:27;;;;;;;3.10;2.90;;;;;;;25.12;61.60;99554.16;130987;1266;107323;-78
2023/07/30 10:26:35;;;;;;;3.60;2.80;;;;;;;24.91;60.58;99557.49;130931;1257;107231;-78
2023/07/30 10:29:42;;;;;;;2.90;2.70;;;;;;;24.64;60.80;99554.66;131055;1257;107437;-78
2023/07/30 10:33:03;;;;;;;3.00;2.80;;;;;;;24.64;62.52;99556.58;130955;1257;107390;-78
2023/07/30 10:36:08;;;;;;;3.10;2.80;;;;;;;24.79;63.09;99558.20;131361;1254;106747;-78
2023/07/30 10:39:17;;;;;;;3.70;2.70;;;;;;;24.96;62.82;99551.40;131308;1252;107538;-78
2023/07/30 10:42:23;;;;;;;3.30;2.80;;;;;;;25.07;62.40;99552.23;131328;1251;107457;-78
2023/07/30 10:45:30;;;;;;;3.30;3.00;;;;;;;25.08;62.22;99552.83;131251;1254;107473;-78
2023/07/30 10:48:37;;;;;;;3.30;3.00;;;;;;;25.05;61.74;99546.10;131266;1251;107212;-78
2023/07/30 10:51:43;;;;;;;3.40;3.00;;;;;;;25.06;61.37;99546.77;131308;1251;107226;-79
2023/07/30 10:54:48;;;;;;;3.10;2.80;;;;;;;25.16;61.78;99546.05;131249;1247;107194;-78
2023/07/30 10:57:54;;;;;;;3.50;2.60;;;;;;;25.18;60.82;99538.79;131293;1249;107447;-78
2023/07/30 11:01:02;;;;;;;2.70;2.50;;;;;;;25.26;61.29;99531.41;131175;1253;107550;-77
2023/07/30 11:04:11;;;;;;;3.10;2.70;;;;;;;25.39;61.04;99529.00;131271;1254;108100;-78
2023/07/30 11:07:20;;;;;;;3.30;2.70;;;;;;;25.63;61.50;99527.09;131296;1251;107263;-78
2023/07/30 11:10:26;;;;;;;3.20;2.90;;;;;;;25.60;55.59;99537.73;131211;1251;108573;-78
2023/07/30 11:13:35;;;;;;;4.50;2.80;;;;;;;25.38;57.63;99530.74;131261;1260;107225;-78
2023/07/30 11:16:50;;;;;;;5.70;2.70;;;;;;;25.41;58.75;99528.35;131240;1254;106790;-78
2023/07/30 11:19:55;;;;;;;3.30;3.00;;;;;;;25.50;57.37;99530.13;131232;1251;106673;-77
2023/07/30 11:23:01;;;;;;;2.80;2.60;;;;;;;25.51;56.25;99533.30;131294;1251;107214;-78
2023/07/30 11:26:08;;;;;;;2.70;2.50;;;;;;;25.37;56.11;99533.53;131292;1247;107350;-78
2023/07/30 11:29:20;;;;;;;3.20;2.90;;;;;;;25.20;55.84;99534.92;131297;1251;107090;-78
2023/07/30 11:32:29;;;;;;;2.90;2.60;;;;;;;25.26;57.84;99539.65;131270;1253;107540;-78
2023/07/30 11:35:35;;;;;;;2.70;2.50;;;;;;;25.34;57.72;99535.66;131304;1248;107191;-78
2023/07/30 11:38:42;;;;;;;2.80;2.60;;;;;;;25.35;58.04;99532.48;131351;1261;107511;-78
2023/07/30 11:41:48;;;;;;;4.30;2.50;;;;;;;25.46;58.37;99531.48;131308;1248;107380;-78
2023/07/30 11:44:53;;;;;;;2.50;2.30;;;;;;;25.47;56.28;99537.01;131252;1251;107537;-77
2023/07/30 11:48:09;;;;;;;4.70;3.10;;;;;;;25.38;56.08;99529.98;131382;1260;107223;-78
2023/07/30 11:51:26;;;;;;;20.70;16.10;;;;;;;25.29;55.57;99528.59;131338;1251;107066;-77
2023/07/30 11:54:32;;;;;;;5.90;4.80;;;;;;;25.14;55.33;99533.70;131346;1247;107396;-79
2023/07/30 11:57:38;;;;;;;4.90;4.40;;;;;;;25.15;56.80;99531.41;131347;1261;106103;-78
2023/07/30 12:00:45;;;;;;;5.90;5.10;;;;;;;25.22;55.83;99536.75;131353;1249;107911;-78
2023/07/30 12:03:51;;;;;;;3.70;3.20;;;;;;;25.17;56.51;99538.18;131310;1251;107602;-78
2023/07/30 12:06:56;;;;;;;4.20;2.70;;;;;;;25.29;56.76;99537.87;131281;1251;106420;-78
2023/07/30 12:10:11;;;;;;;2.90;2.60;;;;;;;25.40;57.07;99539.22;131341;1248;107524;-78
2023/07/30 12:13:19;;;;;;;3.00;2.60;;;;;;;25.57;56.95;99538.23;131298;1251;107353;-78
2023/07/30 12:16:25;;;;;;;2.60;2.40;;;;;;;25.70;56.50;99539.19;131329;1251;107531;-78
2023/07/30 12:19:31;;;;;;;3.20;2.90;;;;;;;25.78;56.17;99537.23;131281;1251;107501;-78
2023/07/30 12:22:38;;;;;;;3.00;2.80;;;;;;;25.78;56.10;99533.99;131275;1261;105879;-78
2023/07/30 12:25:44;;;;;;;3.40;2.90;;;;;;;25.80;55.14;99528.24;131329;1252;107105;-78
2023/07/30 12:28:49;;;;;;;2.80;2.60;;;;;;;25.82;56.10;99526.63;131259;1248;107194;-78
2023/07/30 12:31:55;;;;;;;2.90;2.70;;;;;;;25.73;55.04;99528.41;131269;1247;107363;-78
2023/07/30 12:35:01;;;;;;;2.70;2.50;;;;;;;25.68;55.39;99528.24;131345;1260;107178;-78
2023/07/30 12:38:06;;;;;;;3.30;2.60;;;;;;;25.65;54.38;99529.83;131348;1251;107522;-78
2023/07/30 12:41:12;;;;;;;4.10;2.70;;;;;;;25.64;54.96;99524.74;131274;1251;107504;-78
2023/07/30 12:44:17;;;;;;;2.50;2.30;;;;;;;25.54;53.82;99525.27;131322;1248;107416;-78
2023/07/30 12:47:23;;;;;;;2.70;2.50;;;;;;;25.39;52.91;99521.95;131241;1248;107616;-78
2023/07/30 12:50:29;;;;;;;2.60;2.40;;;;;;;25.29;54.62;99517.35;131316;1251;107560;-78
2023/07/30 12:53:34;;;;;;;2.60;2.40;;;;;;;25.34;55.53;99514.95;131271;1251;107251;-78
2023/07/30 12:56:40;;;;;;;2.40;2.20;;;;;;;25.47;56.46;99511.98;131295;1248;107567;-78
2023/07/30 12:59:45;;;;;;;2.80;2.60;;;;;;;25.65;56.26;99507.54;131329;1247;107516;-78
2023/07/30 13:02:55;;;;;;;2.80;2.20;;;;;;;25.68;55.18;99507.85;131348;1247;107544;-78
2023/07/30 13:06:00;;;;;;;3.80;2.40;;;;;;;25.69;55.31;99510.65;131333;1248;107438;-78
2023/07/30 13:09:06;;;;;;;2.70;2.20;;;;;;;25.71;56.04;99505.95;131355;1247;107250;-78
2023/07/30 13:12:12;;;;;;;2.50;2.30;;;;;;;25.78;55.82;99500.98;131327;1251;107143;-78
2023/07/30 13:15:17;;;;;;;2.60;2.40;;;;;;;25.90;56.32;99495.98;131420;1248;107539;-79
2023/07/30 13:18:23;;;;;;;2.40;2.20;;;;;;;26.02;56.22;99493.09;131397;1251;107648;-78
2023/07/30 13:21:28;;;;;;;3.50;2.20;;;;;;;26.13;55.81;99485.55;131848;1247;107477;-78
2023/07/30 13:24:35;;;;;;;2.60;2.40;;;;;;;26.22;56.09;99483.95;131426;1251;108623;-79
2023/07/30 13:27:41;;;;;;;2.60;2.40;;;;;;;26.33;55.87;99488.91;131430;1248;107204;-80
2023/07/30 13:30:46;;;;;;;2.70;2.40;;;;;;;26.44;55.79;99484.18;131407;1248;108683;-79
2023/07/30 13:33:52;;;;;;;2.70;2.40;;;;;;;26.54;55.63;99484.09;131489;1248;108679;-79
2023/07/30 13:36:57;;;;;;;2.70;2.50;;;;;;;26.59;54.97;99483.94;131507;1251;108142;-79
2023/07/30 13:40:03;;;;;;;2.60;2.40;;;;;;;26.58;54.86;99482.95;131411;1247;107559;-79
2023/07/30 13:43:09;;;;;;;2.60;2.40;;;;;;;26.62;53.59;99474.48;131276;1248;107373;-78
2023/07/30 13:46:14;;;;;;;2.80;2.40;;;;;;;26.69;54.05;99472.77;131393;1251;107526;-79
2023/07/30 13:49:20;;;;;;;3.80;2.30;;;;;;;26.70;54.16;99471.00;131385;1261;107609;-79
2023/07/30 13:52:25;;;;;;;2.60;2.40;;;;;;;26.72;54.55;99471.88;131328;1249;107418;-79
2023/07/30 13:55:31;;;;;;;2.70;2.50;;;;;;;26.83;54.15;99468.23;131394;1251;107625;-79
2023/07/30 13:58:37;;;;;;;2.60;2.40;;;;;;;26.95;54.14;99468.38;131320;1251;107102;-80
2023/07/30 14:01:42;;;;;;;2.50;2.30;;;;;;;27.08;53.80;99473.25;131385;1247;108503;-79
2023/07/30 14:04:48;;;;;;;2.90;2.40;;;;;;;27.23;53.76;99470.45;131249;1253;107532;-79
2023/07/30 14:07:56;;;;;;;2.70;2.50;;;;;;;27.24;53.59;99467.75;131343;1251;107576;-79
2023/07/30 14:11:01;;;;;;;2.70;2.50;;;;;;;27.21;53.64;99469.29;131290;1251;106696;-79
2023/07/30 14:14:07;;;;;;;2.90;2.50;;;;;;;27.17;53.71;99466.73;131311;1251;107488;-79
2023/07/30 14:17:12;;;;;;;2.80;2.60;;;;;;;27.09;53.60;99467.23;131285;1251;107904;-79